Terminal Aerodrome Forecast
Issued by NWS Denver/Boulder, CO

Home | Current Version | Previous Version | Text Only | Print | Product List | Glossary On
Versions: 1 2 3 4 5 6 7 8 9 10 11 12 13 14 15 16 17 18 19 20 21 22 23 24 25 26 27 28 29 30 31 32 33 34 35 36 37 38 39 40 41 42 43 44 45 46 47 48 49 50
000
FTUS45 KBOU 230300 AAA
TAFDEN
TAF AMD
KDEN 230300Z 2303/2406 18009KT P6SM FEW140 BKN220
     FM230600 21009KT P6SM SCT120 BKN220
     FM231400 VRB05KT P6SM FEW070 SCT120 BKN220
     FM231900 08007KT P6SM FEW100 SCT220
     FM240100 19006KT P6SM FEW120=

USA.gov is the U.S. government's official web portal to all federal, state and local government web resources and services.